Time;durP1;ratioP1;P1;durP2;ratioP2;P2;SDS_P1;SDS_P2;PMS_P1;PMS_P2;Temp;Humidity;BMP_temperature;BMP_pressure;BME280_temperature;BME280_humidity;BME280_pressure;Samples;Min_cycle;Max_cycle;Signal;HPM_P1;HPM_P2
2024/04/09 00:01:08;;;;;;;14.07;3.40;;;16.80;99.90;;;;;;5319036;26;20333;-82
2024/04/09 00:03:33;;;;;;;19.52;4.68;;;16.80;99.90;;;;;;5329824;26;20002;-81
2024/04/09 00:05:59;;;;;;;16.27;3.95;;;16.80;99.90;;;;;;5365377;26;20094;-81
2024/04/09 00:08:27;;;;;;;15.02;3.55;;;16.60;99.90;;;;;;5338875;26;20017;-80
2024/04/09 00:10:53;;;;;;;21.73;3.60;;;16.70;99.90;;;;;;5382321;26;20001;-80
2024/04/09 00:13:20;;;;;;;22.88;3.95;;;16.90;99.90;;;;;;5392083;26;20442;-81
2024/04/09 00:15:49;;;;;;;19.23;3.78;;;16.70;99.90;;;;;;5330914;26;20400;-80
2024/04/09 00:18:17;;;;;;;20.98;4.82;;;16.60;99.90;;;;;;5331022;26;20425;-81
2024/04/09 00:20:43;;;;;;;20.85;4.75;;;16.40;99.90;;;;;;5348529;26;20083;-81
2024/04/09 00:23:12;;;;;;;24.95;5.25;;;16.30;99.90;;;;;;5327251;26;20002;-80
2024/04/09 00:25:39;;;;;;;11.95;2.70;;;16.30;99.90;;;;;;5384767;26;20009;-81
2024/04/09 00:28:04;;;;;;;20.35;5.00;;;16.40;99.90;;;;;;5354027;26;20008;-81
2024/04/09 00:30:30;;;;;;;17.42;3.50;;;16.60;99.90;;;;;;5312147;26;20380;-81
2024/04/09 00:32:55;;;;;;;19.27;3.90;;;16.60;99.90;;;;;;5360432;26;20009;-81
2024/04/09 00:35:21;;;;;;;18.90;2.53;;;16.70;99.90;;;;;;5342507;26;20020;-81
2024/04/09 00:37:51;;;;;;;17.00;3.08;;;16.90;99.90;;;;;;5329835;26;20016;-81
2024/04/09 00:40:18;;;;;;;19.48;3.53;;;17.10;99.90;;;;;;5351504;26;20025;-81
2024/04/09 00:42:43;;;;;;;13.93;3.17;;;17.00;99.90;;;;;;5314110;26;20002;-80
2024/04/09 00:45:09;;;;;;;19.65;3.33;;;17.20;99.90;;;;;;5336592;26;20067;-81
2024/04/09 00:47:35;;;;;;;11.90;3.20;;;17.30;99.90;;;;;;5304785;26;20001;-81
2024/04/09 00:50:04;;;;;;;13.38;2.63;;;17.30;99.90;;;;;;5388740;26;20055;-81
2024/04/09 00:52:37;;;;;;;11.52;2.25;;;17.30;99.90;;;;;;5364976;26;20005;-81
2024/04/09 00:55:03;;;;;;;13.40;2.95;;;17.30;99.90;;;;;;5330105;26;20020;-80
2024/04/09 00:57:29;;;;;;;20.92;3.08;;;17.40;99.90;;;;;;5347058;26;20400;-81
2024/04/09 00:59:54;;;;;;;13.05;2.72;;;17.40;99.90;;;;;;5335344;26;20332;-81
2024/04/09 01:02:21;;;;;;;11.77;3.22;;;17.30;99.90;;;;;;5333945;26;20016;-81
2024/04/09 01:04:46;;;;;;;17.48;3.00;;;17.30;99.90;;;;;;5335110;26;20001;-80
2024/04/09 01:07:12;;;;;;;12.32;2.35;;;17.30;99.90;;;;;;5389251;26;20011;-80
2024/04/09 01:09:44;;;;;;;21.42;2.72;;;17.40;99.90;;;;;;5358920;26;20000;-81
2024/04/09 01:12:10;;;;;;;18.15;2.90;;;17.40;99.90;;;;;;5395201;26;20002;-80
2024/04/09 01:14:35;;;;;;;22.02;3.97;;;17.40;99.90;;;;;;5365266;26;20005;-81
2024/04/09 01:17:01;;;;;;;21.30;3.42;;;17.50;99.90;;;;;;5334157;26;20016;-81
2024/04/09 01:19:27;;;;;;;27.63;3.80;;;17.40;99.90;;;;;;5396125;26;21549;-80
2024/04/09 01:21:53;;;;;;;21.00;4.30;;;17.20;99.90;;;;;;5338134;26;20078;-80
2024/04/09 01:24:19;;;;;;;18.83;3.80;;;17.20;99.90;;;;;;5334369;26;20004;-80
2024/04/09 01:26:45;;;;;;;18.33;4.93;;;17.30;99.90;;;;;;5335665;26;20454;-81
2024/04/09 01:29:11;;;;;;;20.10;5.00;;;17.20;99.90;;;;;;5343053;26;20001;-80
2024/04/09 01:31:38;;;;;;;15.10;2.70;;;17.30;99.90;;;;;;5311977;26;20009;-81
2024/04/09 01:34:04;;;;;;;24.15;4.18;;;17.20;99.90;;;;;;5336203;26;20001;-80
2024/04/09 01:36:31;;;;;;;14.65;3.17;;;17.20;99.90;;;;;;5349694;26;20016;-81
2024/04/09 01:38:57;;;;;;;11.95;3.15;;;17.10;99.90;;;;;;5365876;26;20457;-80
2024/04/09 01:41:23;;;;;;;17.55;4.25;;;17.10;99.90;;;;;;5339660;26;19998;-81
2024/04/09 01:43:48;;;;;;;10.30;2.92;;;17.00;99.90;;;;;;5325001;26;20038;-81
2024/04/09 01:46:14;;;;;;;23.17;3.10;;;17.00;99.90;;;;;;5341895;26;20090;-81
2024/04/09 01:48:40;;;;;;;23.25;4.25;;;17.00;99.90;;;;;;5335515;26;20009;-81
2024/04/09 01:51:10;;;;;;;20.25;4.00;;;16.90;99.90;;;;;;5340028;26;20002;-80
2024/04/09 01:53:35;;;;;;;15.23;3.22;;;16.90;99.90;;;;;;5369394;26;20019;-81
2024/04/09 01:56:01;;;;;;;12.63;2.55;;;16.90;99.90;;;;;;5340978;26;20025;-81
2024/04/09 01:58:27;;;;;;;11.77;3.15;;;16.80;99.90;;;;;;5363300;26;20083;-80
2024/04/09 02:00:53;;;;;;;18.50;3.30;;;16.80;99.90;;;;;;5319352;26;20013;-81
2024/04/09 02:03:19;;;;;;;16.70;4.15;;;16.80;99.90;;;;;;5340229;26;20001;-81
2024/04/09 02:05:45;;;;;;;21.90;4.18;;;16.70;99.90;;;;;;5358801;26;20029;-81
2024/04/09 02:08:10;;;;;;;20.85;3.22;;;16.70;99.90;;;;;;5363561;26;20364;-80
2024/04/09 02:10:36;;;;;;;12.73;3.03;;;16.70;99.90;;;;;;5349906;26;20017;-80
2024/04/09 02:13:03;;;;;;;15.13;3.45;;;16.60;99.90;;;;;;5334275;26;20001;-81
2024/04/09 02:15:29;;;;;;;9.57;2.67;;;16.60;99.90;;;;;;5337417;26;20026;-81
2024/04/09 02:17:55;;;;;;;18.50;3.78;;;16.60;99.90;;;;;;5382527;26;20357;-80
2024/04/09 02:20:21;;;;;;;13.05;3.13;;;16.50;99.90;;;;;;5358000;26;20036;-81
2024/04/09 02:22:47;;;;;;;11.07;3.33;;;16.50;99.90;;;;;;5332296;26;20455;-80
2024/04/09 02:25:13;;;;;;;9.00;2.72;;;16.60;99.90;;;;;;5336582;26;20005;-81
2024/04/09 02:27:38;;;;;;;12.82;3.63;;;16.50;99.90;;;;;;5334878;26;20011;-81
2024/04/09 02:30:09;;;;;;;16.25;3.83;;;16.60;99.90;;;;;;5365236;26;20015;-81
2024/04/09 02:32:34;;;;;;;16.35;3.55;;;16.40;99.90;;;;;;5335615;26;20078;-81
2024/04/09 02:35:01;;;;;;;9.50;2.50;;;16.60;99.90;;;;;;5334209;26;20012;-81
2024/04/09 02:37:28;;;;;;;23.45;4.60;;;16.50;99.90;;;;;;5370690;26;20017;-81
2024/04/09 02:39:53;;;;;;;17.27;4.40;;;16.30;99.90;;;;;;5356463;26;20000;-81
2024/04/09 02:42:20;;;;;;;11.30;2.42;;;16.30;99.90;;;;;;5333942;26;20457;-82
2024/04/09 02:44:46;;;;;;;27.25;3.97;;;16.30;99.90;;;;;;5361337;26;20008;-81
2024/04/09 02:47:11;;;;;;;20.58;4.82;;;16.20;99.90;;;;;;5389723;26;20096;-82
2024/04/09 02:49:37;;;;;;;20.60;4.22;;;16.10;99.90;;;;;;5294044;26;20083;-81
2024/04/09 02:52:03;;;;;;;13.77;3.42;;;16.10;99.90;;;;;;5337607;26;20012;-81
2024/04/09 02:54:29;;;;;;;10.52;3.60;;;16.10;99.90;;;;;;5363528;26;20348;-81
2024/04/09 02:56:54;;;;;;;16.27;3.03;;;16.00;99.90;;;;;;5352952;26;20005;-81
2024/04/09 02:59:20;;;;;;;12.20;3.15;;;16.00;99.90;;;;;;5344359;26;20004;-81
2024/04/09 03:01:49;;;;;;;11.55;3.08;;;15.90;99.90;;;;;;5373671;26;20016;-80
2024/04/09 03:04:15;;;;;;;11.43;2.83;;;15.90;99.90;;;;;;5362550;26;20061;-81
2024/04/09 03:06:40;;;;;;;22.95;3.95;;;16.00;99.90;;;;;;5338870;26;20016;-80
2024/04/09 03:09:06;;;;;;;18.48;3.92;;;15.90;99.90;;;;;;5366818;26;20008;-81
2024/04/09 03:11:31;;;;;;;22.08;4.22;;;16.00;99.90;;;;;;5307472;26;20001;-81
2024/04/09 03:13:57;;;;;;;15.27;3.53;;;15.80;99.90;;;;;;5360632;26;20013;-81
2024/04/09 03:16:22;;;;;;;13.10;2.70;;;15.70;99.90;;;;;;5358337;26;20009;-81
2024/04/09 03:18:50;;;;;;;11.73;3.05;;;15.80;99.90;;;;;;5351527;26;20078;-81
2024/04/09 03:21:15;;;;;;;9.77;2.85;;;15.90;99.90;;;;;;5334209;26;20052;-81
2024/04/09 03:23:41;;;;;;;16.42;4.18;;;15.70;99.90;;;;;;5345370;26;20017;-81
2024/04/09 03:26:09;;;;;;;16.27;3.33;;;15.80;99.90;;;;;;5334536;26;20041;-81
2024/04/09 03:28:34;;;;;;;11.05;3.08;;;15.70;99.90;;;;;;5325496;26;20444;-81
2024/04/09 03:31:01;;;;;;;14.82;3.70;;;15.80;99.90;;;;;;5308371;26;20021;-81
2024/04/09 03:33:26;;;;;;;9.40;2.80;;;15.80;99.90;;;;;;5345113;26;20000;-80
2024/04/09 03:35:52;;;;;;;9.40;2.35;;;15.90;99.90;;;;;;5365490;26;20467;-81
2024/04/09 03:38:18;;;;;;;8.50;3.15;;;15.80;99.90;;;;;;5363596;26;20079;-81
2024/04/09 03:40:53;;;;;;;18.38;3.38;;;15.90;99.90;;;;;;5337657;26;20480;-81
2024/04/09 03:43:19;;;;;;;5.00;2.40;;;15.80;99.90;;;;;;5389578;26;20449;-80
2024/04/09 03:45:57;;;;;;;9.48;2.22;;;15.80;99.90;;;;;;5343941;26;20780;-81
2024/04/09 03:48:23;;;;;;;8.65;2.30;;;16.00;99.90;;;;;;5312452;26;20023;-81
2024/04/09 03:50:48;;;;;;;14.07;2.88;;;16.00;99.90;;;;;;5357013;26;19997;-81
2024/04/09 03:53:14;;;;;;;14.32;3.10;;;16.00;99.90;;;;;;5323489;26;20370;-80
2024/04/09 03:55:40;;;;;;;15.20;2.85;;;16.00;99.90;;;;;;5354889;26;20012;-81
2024/04/09 03:58:06;;;;;;;14.48;2.58;;;16.00;99.90;;;;;;5330843;26;20018;-80
2024/04/09 04:00:31;;;;;;;9.30;2.72;;;16.00;99.90;;;;;;5324875;26;19997;-81
2024/04/09 04:02:57;;;;;;;11.57;2.67;;;15.90;99.90;;;;;;5328705;26;20073;-81
2024/04/09 04:05:22;;;;;;;12.27;2.38;;;15.90;99.90;;;;;;5379126;26;20009;-81
2024/04/09 04:07:48;;;;;;;12.05;3.20;;;16.00;99.90;;;;;;5335273;26;20342;-80
2024/04/09 04:10:13;;;;;;;11.43;3.20;;;16.00;99.90;;;;;;5304491;26;19997;-80
2024/04/09 04:12:39;;;;;;;10.93;2.72;;;15.90;99.90;;;;;;5356211;26;20052;-80
2024/04/09 04:15:05;;;;;;;11.50;2.30;;;15.80;99.90;;;;;;5338611;26;20001;-80
2024/04/09 04:17:30;;;;;;;20.35;2.67;;;15.70;99.90;;;;;;5352842;26;20020;-80
2024/04/09 04:19:56;;;;;;;10.07;2.45;;;15.70;99.90;;;;;;5385581;26;20457;-80
2024/04/09 04:22:21;;;;;;;10.02;2.33;;;15.80;99.90;;;;;;5335482;26;20001;-80
2024/04/09 04:24:47;;;;;;;6.88;1.90;;;15.70;99.90;;;;;;5354495;26;20395;-81
2024/04/09 04:27:13;;;;;;;16.77;2.85;;;15.60;99.90;;;;;;5352109;26;20337;-81
2024/04/09 04:29:38;;;;;;;13.00;2.03;;;15.60;99.90;;;;;;5360751;26;20001;-80
2024/04/09 04:32:04;;;;;;;10.20;2.20;;;15.80;99.90;;;;;;5359774;26;20033;-81
2024/04/09 04:34:29;;;;;;;9.70;2.53;;;15.70;99.90;;;;;;5357842;26;20076;-80
2024/04/09 04:36:55;;;;;;;8.00;1.58;;;15.70;99.90;;;;;;5333489;26;20001;-80
2024/04/09 04:39:20;;;;;;;15.23;2.67;;;15.70;99.90;;;;;;5394586;26;20005;-79
2024/04/09 04:41:46;;;;;;;8.82;1.90;;;15.90;99.90;;;;;;5328899;26;20345;-79
2024/04/09 04:44:11;;;;;;;7.15;2.17;;;15.70;99.90;;;;;;5330716;26;20456;-79
2024/04/09 04:46:37;;;;;;;6.63;1.90;;;15.60;99.90;;;;;;5326688;26;20015;-80
2024/04/09 04:49:03;;;;;;;15.00;3.33;;;15.60;99.90;;;;;;5358616;26;20120;-79
2024/04/09 04:51:28;;;;;;;8.95;1.77;;;15.40;99.90;;;;;;5355090;26;20419;-79
2024/04/09 04:53:54;;;;;;;8.15;1.73;;;15.20;99.90;;;;;;5321123;26;20001;-78
2024/04/09 04:56:20;;;;;;;5.30;1.90;;;15.40;99.90;;;;;;5297710;26;20344;-79
2024/04/09 04:58:45;;;;;;;9.02;2.15;;;15.40;99.90;;;;;;5341574;26;19997;-78
2024/04/09 05:01:11;;;;;;;10.85;2.20;;;15.40;99.90;;;;;;5307111;26;20515;-79
2024/04/09 05:03:37;;;;;;;7.65;1.88;;;15.40;99.90;;;;;;5336731;26;20048;-78
2024/04/09 05:06:05;;;;;;;6.45;1.85;;;15.50;99.90;;;;;;5324147;26;20471;-79
2024/04/09 05:08:30;;;;;;;8.95;1.63;;;15.30;99.90;;;;;;5386366;26;20146;-79
2024/04/09 05:10:56;;;;;;;7.95;1.67;;;15.30;99.90;;;;;;5332215;26;20465;-79
2024/04/09 05:13:22;;;;;;;7.00;1.63;;;15.20;99.90;;;;;;5329196;26;20013;-79
2024/04/09 05:15:47;;;;;;;7.30;3.47;;;15.30;99.90;;;;;;5326296;26;20381;-78
2024/04/09 05:18:14;;;;;;;10.30;2.38;;;15.20;99.90;;;;;;5304650;26;20008;-79
2024/04/09 05:20:41;;;;;;;4.25;1.50;;;15.20;99.90;;;;;;5353404;26;20646;-79
2024/04/09 05:23:07;;;;;;;6.35;1.42;;;15.20;99.90;;;;;;5331944;26;20495;-79
2024/04/09 05:25:36;;;;;;;9.48;1.83;;;15.10;99.90;;;;;;5350422;26;20668;-80
2024/04/09 05:28:02;;;;;;;5.18;1.92;;;15.20;99.90;;;;;;5359510;26;20002;-80
2024/04/09 05:30:28;;;;;;;10.50;1.88;;;15.20;99.90;;;;;;5386608;26;20036;-81
2024/04/09 05:32:54;;;;;;;9.55;1.50;;;15.20;99.90;;;;;;5321622;26;20520;-80
2024/04/09 05:35:20;;;;;;;10.57;2.05;;;15.20;99.90;;;;;;5379245;26;20000;-81
2024/04/09 05:37:45;;;;;;;5.07;1.77;;;15.10;99.90;;;;;;5330383;26;20005;-80
2024/04/09 05:40:11;;;;;;;6.25;1.20;;;15.00;99.90;;;;;;5346672;26;20446;-80
2024/04/09 05:42:46;;;;;;;5.60;2.08;;;15.10;99.90;;;;;;5358606;26;20390;-77
2024/04/09 05:45:13;;;;;;;6.47;1.08;;;15.00;99.90;;;;;;5319426;26;20072;-80
2024/04/09 05:47:39;;;;;;;3.28;1.63;;;15.00;99.90;;;;;;5394016;26;20009;-79
2024/04/09 05:50:05;;;;;;;8.00;1.83;;;15.00;99.90;;;;;;5357196;26;20050;-80
2024/04/09 05:52:31;;;;;;;7.18;2.90;;;14.90;99.90;;;;;;5356269;26;19997;-80
2024/04/09 05:54:58;;;;;;;4.55;1.80;;;14.90;99.90;;;;;;5324961;26;20076;-79
2024/04/09 05:57:23;;;;;;;5.53;1.42;;;14.90;99.90;;;;;;5331693;26;20465;-79
2024/04/09 05:59:49;;;;;;;5.97;1.30;;;14.90;99.90;;;;;;5355059;26;20037;-79
2024/04/09 06:02:14;;;;;;;3.13;1.02;;;14.90;99.90;;;;;;5330151;26;20001;-79
2024/04/09 06:04:40;;;;;;;9.13;1.40;;;14.80;99.90;;;;;;5321654;26;19996;-80
2024/04/09 06:07:05;;;;;;;2.13;0.68;;;14.90;99.90;;;;;;5383496;26;20080;-80
2024/04/09 06:09:31;;;;;;;3.55;1.05;;;14.80;99.90;;;;;;5323805;26;20430;-79
2024/04/09 06:11:57;;;;;;;4.28;1.20;;;14.90;99.90;;;;;;5335261;26;20005;-79
2024/04/09 06:14:22;;;;;;;3.53;1.15;;;14.90;99.90;;;;;;5330956;26;20026;-79
2024/04/09 06:16:48;;;;;;;4.82;1.40;;;14.90;99.90;;;;;;5342986;26;20103;-79
2024/04/09 06:19:13;;;;;;;8.02;1.80;;;14.80;99.90;;;;;;5325223;26;20371;-79
2024/04/09 06:21:40;;;;;;;3.75;1.10;;;14.90;99.90;;;;;;5356611;26;20016;-80
2024/04/09 06:24:07;;;;;;;8.68;2.22;;;15.00;99.90;;;;;;5382310;26;20015;-79
2024/04/09 06:26:32;;;;;;;4.68;1.35;;;15.10;99.90;;;;;;5366129;26;20129;-78
2024/04/09 06:28:59;;;;;;;5.25;1.63;;;14.80;99.90;;;;;;5350392;26;20024;-79
2024/04/09 06:31:24;;;;;;;4.18;1.65;;;14.80;99.90;;;;;;5356439;26;20006;-78
2024/04/09 06:33:51;;;;;;;4.90;1.60;;;14.80;99.90;;;;;;5336215;26;20330;-78
2024/04/09 06:36:16;;;;;;;4.07;1.83;;;14.70;99.90;;;;;;5351772;26;20060;-78
2024/04/09 06:38:43;;;;;;;6.18;1.83;;;14.50;99.90;;;;;;5326290;26;20009;-79
2024/04/09 06:41:08;;;;;;;6.50;1.98;;;14.60;99.90;;;;;;5331716;26;20015;-78
2024/04/09 06:43:34;;;;;;;2.17;1.80;;;14.60;99.90;;;;;;5335651;26;20060;-78
2024/04/09 06:45:59;;;;;;;5.70;1.75;;;14.60;99.90;;;;;;5356814;26;20361;-78
2024/04/09 06:48:25;;;;;;;1.45;1.33;;;14.60;99.90;;;;;;5354886;26;20037;-78
2024/04/09 06:50:50;;;;;;;2.50;1.23;;;14.60;99.90;;;;;;5338107;26;20015;-79
2024/04/09 06:53:16;;;;;;;4.10;2.15;;;14.60;99.90;;;;;;5358063;26;20025;-78
2024/04/09 06:55:43;;;;;;;19.60;3.70;;;14.60;99.90;;;;;;5392375;26;20012;-78
2024/04/09 06:58:10;;;;;;;4.88;1.30;;;14.50;99.90;;;;;;5331920;26;20002;-78
2024/04/09 07:00:36;;;;;;;4.40;1.23;;;14.30;99.90;;;;;;5322920;26;20016;-77
2024/04/09 07:03:04;;;;;;;6.30;1.52;;;14.30;99.90;;;;;;5305327;26;20469;-77
2024/04/09 07:05:30;;;;;;;3.17;1.83;;;14.30;99.90;;;;;;5383392;26;20024;-77
2024/04/09 07:07:56;;;;;;;4.53;1.40;;;14.30;99.90;;;;;;5355911;26;20012;-78
2024/04/09 07:10:22;;;;;;;4.93;1.25;;;14.10;99.90;;;;;;5353949;26;20025;-77
2024/04/09 07:12:50;;;;;;;1.70;1.10;;;14.10;99.90;;;;;;5355148;26;20123;-78
2024/04/09 07:15:15;;;;;;;0.82;0.60;;;14.00;99.90;;;;;;5340607;26;20016;-78
2024/04/09 07:17:41;;;;;;;1.02;0.73;;;14.00;99.90;;;;;;5329438;26;20001;-77
2024/04/09 07:20:08;;;;;;;4.20;0.88;;;14.00;99.90;;;;;;5292849;26;20016;-78
2024/04/09 07:22:39;;;;;;;2.33;1.08;;;13.90;99.90;;;;;;5364040;26;20000;-78
2024/04/09 07:25:04;;;;;;;1.55;1.00;;;13.90;99.90;;;;;;5358378;26;20001;-78
2024/04/09 07:27:30;;;;;;;5.63;1.13;;;13.70;99.90;;;;;;5336109;26;20456;-77
2024/04/09 07:30:01;;;;;;;2.35;0.70;;;13.50;99.90;;;;;;5334875;26;20001;-77
2024/04/09 07:32:26;;;;;;;2.92;0.93;;;13.60;99.90;;;;;;5339791;26;20013;-78
2024/04/09 07:34:55;;;;;;;0.77;0.65;;;13.50;99.90;;;;;;5340034;26;20336;-78
2024/04/09 07:37:21;;;;;;;1.73;0.35;;;13.50;99.90;;;;;;5304850;26;20060;-78
2024/04/09 07:39:46;;;;;;;4.82;1.70;;;13.50;99.90;;;;;;5333400;26;20005;-77
2024/04/09 07:42:12;;;;;;;2.08;0.63;;;13.40;99.90;;;;;;5331748;26;20013;-78
2024/04/09 07:44:44;;;;;;;2.50;0.77;;;13.50;99.90;;;;;;5380656;26;20028;-79
2024/04/09 07:47:12;;;;;;;0.73;0.43;;;13.50;99.90;;;;;;5338332;26;20001;-78
2024/04/09 07:49:38;;;;;;;4.55;1.00;;;13.50;99.90;;;;;;5371450;26;20091;-78
2024/04/09 07:52:05;;;;;;;2.63;0.85;;;13.40;99.90;;;;;;5357617;26;20013;-78
2024/04/09 07:54:30;;;;;;;0.40;0.32;;;13.30;99.90;;;;;;5341365;26;20004;-78
2024/04/09 07:56:57;;;;;;;2.25;0.65;;;13.30;99.90;;;;;;5356778;26;20004;-79
2024/04/09 07:59:23;;;;;;;4.72;0.60;;;13.40;99.90;;;;;;5342665;26;20708;-78
2024/04/09 08:01:49;;;;;;;2.05;0.57;;;13.20;99.90;;;;;;5333438;26;20005;-78
2024/04/09 08:04:15;;;;;;;3.15;0.70;;;13.00;99.90;;;;;;5332413;26;20591;-77
2024/04/09 08:06:40;;;;;;;3.22;0.65;;;13.00;99.90;;;;;;5341932;26;20070;-77
2024/04/09 08:09:10;;;;;;;1.55;0.55;;;13.00;99.90;;;;;;5316468;26;20013;-77
2024/04/09 08:11:42;;;;;;;3.40;0.63;;;12.80;99.90;;;;;;5339344;26;20014;-78
2024/04/09 08:14:10;;;;;;;2.05;0.65;;;13.00;99.90;;;;;;5360848;26;20028;-77
2024/04/09 08:16:35;;;;;;;3.95;0.52;;;13.10;99.90;;;;;;5327292;26;20484;-78
2024/04/09 08:19:01;;;;;;;4.10;1.00;;;13.10;99.90;;;;;;5328892;26;20036;-77
2024/04/09 08:21:26;;;;;;;2.35;0.95;;;13.20;99.90;;;;;;5353119;26;20005;-78
2024/04/09 08:23:52;;;;;;;3.15;1.15;;;13.20;99.90;;;;;;5338543;26;20001;-77
2024/04/09 08:26:18;;;;;;;0.40;0.40;;;13.20;99.90;;;;;;5331934;26;20001;-79
2024/04/09 08:28:48;;;;;;;3.88;1.25;;;13.40;99.90;;;;;;5334220;26;20407;-79
2024/04/09 08:31:13;;;;;;;3.67;0.90;;;13.40;99.90;;;;;;5333255;26;20021;-79
2024/04/09 08:33:39;;;;;;;4.78;0.85;;;13.50;99.90;;;;;;5335652;26;20864;-79
2024/04/09 08:36:05;;;;;;;2.10;0.80;;;13.40;99.90;;;;;;5323154;26;20008;-80
2024/04/09 08:38:31;;;;;;;6.65;1.00;;;13.50;99.90;;;;;;5335163;26;20074;-79
2024/04/09 08:40:56;;;;;;;2.75;0.80;;;13.50;99.90;;;;;;5337222;26;20029;-80
2024/04/09 08:43:22;;;;;;;4.05;0.95;;;13.50;99.90;;;;;;5360256;26;20530;-80
2024/04/09 08:45:47;;;;;;;1.92;0.80;;;13.50;99.90;;;;;;5393065;26;20524;-80
2024/04/09 08:48:15;;;;;;;3.90;0.75;;;13.60;99.90;;;;;;5359330;26;20005;-80
2024/04/09 08:50:52;;;;;;;8.27;0.90;;;13.60;99.90;;;;;;5308488;26;20020;-80
2024/04/09 08:53:18;;;;;;;5.55;0.93;;;13.60;99.90;;;;;;5348181;26;20010;-80
2024/04/09 08:55:44;;;;;;;2.90;0.70;;;13.80;99.90;;;;;;5333664;26;20081;-80
2024/04/09 08:58:12;;;;;;;7.90;0.98;;;13.80;99.90;;;;;;5332745;26;20112;-79
2024/04/09 09:00:37;;;;;;;5.07;0.88;;;13.80;99.90;;;;;;5336811;26;20032;-80
2024/04/09 09:03:04;;;;;;;2.25;0.70;;;13.80;99.90;;;;;;5329107;26;20001;-80
2024/04/09 09:05:30;;;;;;;4.35;1.00;;;13.90;99.90;;;;;;5365786;26;20533;-80
2024/04/09 09:07:59;;;;;;;1.20;0.45;;;13.90;99.90;;;;;;5329017;26;20535;-80
2024/04/09 09:10:27;;;;;;;3.42;0.73;;;13.90;99.90;;;;;;5363606;26;20005;-80
2024/04/09 09:13:02;;;;;;;2.63;0.95;;;13.90;99.90;;;;;;5368123;26;20006;-80
2024/04/09 09:15:27;;;;;;;5.15;0.90;;;13.90;99.90;;;;;;5328820;26;20001;-80
2024/04/09 09:17:53;;;;;;;5.65;0.70;;;13.80;99.90;;;;;;5363996;26;20020;-80
2024/04/09 09:20:19;;;;;;;1.75;0.45;;;14.00;99.90;;;;;;5314807;26;20001;-79
2024/04/09 09:22:46;;;;;;;10.27;1.75;;;14.10;99.90;;;;;;5362262;26;20009;-80
2024/04/09 09:25:15;;;;;;;3.63;0.82;;;14.10;99.90;;;;;;5338147;26;20021;-79
2024/04/09 09:27:44;;;;;;;3.10;1.08;;;14.20;99.90;;;;;;5388957;26;20479;-80
2024/04/09 09:30:11;;;;;;;4.15;1.40;;;14.30;99.90;;;;;;5339909;26;20012;-79
2024/04/09 09:32:49;;;;;;;5.88;0.90;;;14.60;99.90;;;;;;5340556;26;20028;-79
2024/04/09 09:35:18;;;;;;;2.72;0.75;;;14.70;99.90;;;;;;5334432;26;20464;-80
2024/04/09 09:37:47;;;;;;;5.68;0.90;;;14.60;99.90;;;;;;5398665;26;20000;-80
2024/04/09 09:40:15;;;;;;;2.90;0.50;;;14.40;99.90;;;;;;5386911;26;20001;-79
2024/04/09 09:42:42;;;;;;;5.20;1.10;;;14.30;99.90;;;;;;5362739;26;20027;-79
2024/04/09 09:45:08;;;;;;;3.03;0.70;;;14.30;99.90;;;;;;5329544;26;20005;-79
2024/04/09 09:47:34;;;;;;;1.77;0.28;;;14.30;99.90;;;;;;5332539;26;20306;-79
2024/04/09 09:49:59;;;;;;;8.68;0.70;;;14.20;99.90;;;;;;5332368;26;20019;-79
2024/04/09 09:52:25;;;;;;;2.53;1.05;;;14.20;99.90;;;;;;5304099;26;20057;-79
2024/04/09 09:54:51;;;;;;;1.42;0.60;;;14.10;99.90;;;;;;5334468;26;20005;-79
2024/04/09 09:57:18;;;;;;;4.22;0.57;;;14.10;99.90;;;;;;5372661;26;20057;-79
2024/04/09 10:00:09;;;;;;;1.75;0.85;;;14.00;99.90;;;;;;5383016;26;20004;-79
2024/04/09 10:02:41;;;;;;;2.95;0.40;;;13.90;99.90;;;;;;5359390;26;20458;-79
2024/04/09 10:05:07;;;;;;;5.45;0.52;;;13.80;99.90;;;;;;5355181;26;20013;-79
2024/04/09 10:07:33;;;;;;;2.28;0.45;;;13.70;99.90;;;;;;5331038;26;20082;-79
2024/04/09 10:09:58;;;;;;;2.25;0.50;;;13.90;99.90;;;;;;5340076;26;20644;-79
2024/04/09 10:12:34;;;;;;;2.33;0.77;;;14.10;99.90;;;;;;5382177;26;20009;-79
2024/04/09 10:15:03;;;;;;;10.00;0.70;;;14.10;99.90;;;;;;5367441;26;20000;-79
2024/04/09 10:17:53;;;;;;;5.90;1.08;;;14.10;99.90;;;;;;5328799;26;20009;-78
2024/04/09 10:20:27;;;;;;;1.25;0.70;;;14.40;99.90;;;;;;5334411;26;20012;-79
2024/04/09 10:22:53;;;;;;;2.50;0.70;;;14.70;99.90;;;;;;5348456;26;20498;-79
2024/04/09 10:25:23;;;;;;;1.23;0.50;;;14.70;99.90;;;;;;5297782;26;20002;-79
2024/04/09 10:28:13;;;;;;;1.67;0.90;;;15.10;99.90;;;;;;5342955;26;20011;-78
2024/04/09 10:30:43;;;;;;;1.55;0.60;;;15.40;99.90;;;;;;5387911;26;20298;-78
2024/04/09 10:33:09;;;;;;;2.72;0.82;;;15.60;99.90;;;;;;5388199;26;20028;-79
2024/04/09 10:35:35;;;;;;;1.45;0.50;;;15.70;99.90;;;;;;5393100;26;20480;-78
2024/04/09 10:38:07;;;;;;;2.60;0.68;;;15.80;99.90;;;;;;5345249;26;20001;-78
2024/04/09 10:40:36;;;;;;;1.77;0.60;;;15.90;99.90;;;;;;5302018;26;20526;-78
2024/04/09 10:43:07;;;;;;;1.50;0.40;;;16.20;99.90;;;;;;5327487;26;19926;-78
2024/04/09 10:45:33;;;;;;;2.25;0.35;;;16.10;99.90;;;;;;5326540;26;20002;-78
2024/04/09 10:47:59;;;;;;;1.23;0.70;;;16.00;99.90;;;;;;5386662;26;20004;-78
2024/04/09 10:50:25;;;;;;;1.55;0.70;;;16.10;99.90;;;;;;5338373;26;20002;-76
2024/04/09 10:52:57;;;;;;;2.13;0.70;;;16.10;99.90;;;;;;5328684;26;20004;-78
2024/04/09 10:55:22;;;;;;;2.00;0.50;;;16.30;99.90;;;;;;5334815;26;20076;-78
2024/04/09 10:57:52;;;;;;;1.23;0.70;;;16.30;99.90;;;;;;5338150;26;20004;-79
2024/04/09 11:00:18;;;;;;;1.88;0.50;;;16.30;99.90;;;;;;5393811;26;20113;-78
2024/04/09 11:02:44;;;;;;;4.03;0.80;;;16.40;99.90;;;;;;5369153;26;20830;-78
2024/04/09 11:05:10;;;;;;;4.10;0.80;;;16.40;99.90;;;;;;5360019;26;20001;-78
2024/04/09 11:07:40;;;;;;;4.00;0.70;;;16.50;99.90;;;;;;5329325;26;20464;-78
2024/04/09 11:10:10;;;;;;;1.63;0.30;;;16.40;99.90;;;;;;5335902;26;20013;-78
2024/04/09 11:12:37;;;;;;;7.13;1.00;;;16.20;99.90;;;;;;5327739;26;20452;-79
2024/04/09 11:15:03;;;;;;;3.85;0.80;;;16.50;99.90;;;;;;5337561;26;20012;-79
2024/04/09 11:17:29;;;;;;;2.75;0.70;;;16.30;99.90;;;;;;5347142;26;20003;-78
2024/04/09 11:20:11;;;;;;;2.15;0.28;;;16.30;99.90;;;;;;5368602;26;20011;-78
2024/04/09 11:22:43;;;;;;;3.30;0.70;;;16.40;99.90;;;;;;5340555;26;20028;-78
2024/04/09 11:25:13;;;;;;;4.43;1.70;;;16.50;99.90;;;;;;5359316;26;20344;-78
2024/04/09 11:27:44;;;;;;;1.40;0.38;;;16.80;99.90;;;;;;5334638;26;20017;-78
2024/04/09 11:30:09;;;;;;;4.20;0.80;;;16.90;99.90;;;;;;5335270;26;20108;-78
2024/04/09 11:32:39;;;;;;;5.80;0.90;;;16.70;99.90;;;;;;5372757;26;20013;-78
2024/04/09 11:35:19;;;;;;;3.78;0.75;;;16.80;99.80;;;;;;5370871;26;20005;-78
2024/04/09 11:37:51;;;;;;;2.65;0.75;;;16.70;99.90;;;;;;5341497;26;20017;-78
2024/04/09 11:40:28;;;;;;;3.83;0.85;;;17.10;99.90;;;;;;5337851;26;20080;-78
2024/04/09 11:42:58;;;;;;;1.80;1.15;;;16.70;98.70;;;;;;5339012;26;20015;-78
2024/04/09 11:45:28;;;;;;;2.70;0.63;;;16.60;98.10;;;;;;5356051;26;20431;-78
2024/04/09 11:47:54;;;;;;;3.92;0.88;;;16.60;98.50;;;;;;5332148;26;20502;-78
2024/04/09 11:50:20;;;;;;;1.55;0.55;;;16.70;98.20;;;;;;5333594;26;20004;-78
2024/04/09 11:52:46;;;;;;;1.30;0.40;;;16.90;97.40;;;;;;5365213;26;20037;-77
2024/04/09 11:55:12;;;;;;;2.70;0.60;;;17.00;96.20;;;;;;5331738;26;20073;-77
2024/04/09 11:57:40;;;;;;;4.95;1.02;;;16.90;95.30;;;;;;5337299;26;20005;-77
2024/04/09 12:00:07;;;;;;;1.60;0.65;;;16.80;94.60;;;;;;5314710;26;20017;-78
2024/04/09 12:02:32;;;;;;;2.08;0.80;;;16.90;95.20;;;;;;5333505;26;20009;-77
2024/04/09 12:04:58;;;;;;;10.80;1.05;;;16.70;94.80;;;;;;5368150;26;20005;-78
2024/04/09 12:07:23;;;;;;;0.70;0.40;;;17.40;95.10;;;;;;5329668;26;20017;-78
2024/04/09 12:09:49;;;;;;;3.78;0.70;;;17.70;94.10;;;;;;5340975;26;20012;-77
2024/04/09 12:12:15;;;;;;;1.13;0.57;;;17.90;93.40;;;;;;5357611;26;20012;-78
2024/04/09 12:14:41;;;;;;;2.47;0.70;;;18.00;93.40;;;;;;5311368;26;20006;-78
2024/04/09 12:17:06;;;;;;;1.65;0.63;;;18.00;93.50;;;;;;5335238;26;20005;-78
2024/04/09 12:19:32;;;;;;;3.95;0.55;;;18.20;92.90;;;;;;5342092;26;20032;-77
2024/04/09 12:21:59;;;;;;;1.10;0.40;;;18.20;93.70;;;;;;5337486;26;20001;-77
2024/04/09 12:24:29;;;;;;;1.80;0.32;;;17.90;91.10;;;;;;5329812;26;20798;-77
2024/04/09 12:26:55;;;;;;;1.20;0.60;;;17.80;91.60;;;;;;5336726;26;20523;-77
2024/04/09 12:29:28;;;;;;;1.30;0.65;;;17.70;91.70;;;;;;5310718;26;20001;-77
2024/04/09 12:31:54;;;;;;;8.30;0.77;;;18.00;91.80;;;;;;5370859;26;20000;-78
2024/04/09 12:34:21;;;;;;;1.08;0.40;;;18.00;91.70;;;;;;5333033;26;20449;-77
2024/04/09 12:36:47;;;;;;;5.53;0.60;;;18.30;92.30;;;;;;5338566;26;20015;-77
2024/04/09 12:39:12;;;;;;;2.22;0.30;;;18.30;92.10;;;;;;5341693;26;20016;-77
2024/04/09 12:41:38;;;;;;;1.77;0.70;;;18.20;91.30;;;;;;5362841;26;20005;-77